createdAt,value
2018-12-22T00:00:54.485Z,84.71
2018-12-22T00:03:24.572Z,84.27
2018-12-22T00:05:55.394Z,84.51
2018-12-22T00:08:25.558Z,84.24
2018-12-22T00:10:55.633Z,83.56
2018-12-22T00:13:25.685Z,83.65
2018-12-22T00:15:55.940Z,82.71
2018-12-22T00:18:25.955Z,82.63
2018-12-22T00:20:56.546Z,82.75
2018-12-22T00:23:28.881Z,82.57
2018-12-22T00:25:59.080Z,81.94
2018-12-22T00:28:29.683Z,81.65
2018-12-22T00:31:01.022Z,81.68
2018-12-22T00:33:31.102Z,82.27
2018-12-22T00:36:01.286Z,82.08
2018-12-22T00:38:31.794Z,81.96
2018-12-22T00:41:02.785Z,81.48
2018-12-22T00:43:33.399Z,81.22
2018-12-22T00:46:03.734Z,81.30
2018-12-22T00:48:34.465Z,81.32
2018-12-22T00:51:04.812Z,80.80
2018-12-22T00:53:35.419Z,81.53
2018-12-22T00:56:06.887Z,80.89
2018-12-22T00:58:37.210Z,80.95
2018-12-22T01:01:07.442Z,80.84
2018-12-22T01:03:38.121Z,81.02
2018-12-22T01:06:08.281Z,80.78
2018-12-22T01:08:38.304Z,81.39
2018-12-22T01:11:09.905Z,81.56
2018-12-22T01:13:41.322Z,81.58
2018-12-22T01:16:12.290Z,81.71
2018-12-22T01:18:42.337Z,81.77
2018-12-22T01:21:12.491Z,81.91
2018-12-22T01:23:43.209Z,82.20
2018-12-22T01:26:14.216Z,81.58
2018-12-22T01:28:44.734Z,82.11
2018-12-22T01:31:14.912Z,82.69
2018-12-22T01:33:45.085Z,83.78
2018-12-22T01:36:16.375Z,83.36
2018-12-22T01:38:46.469Z,83.10
2018-12-22T01:41:17.827Z,82.13
2018-12-22T01:43:48.468Z,82.51
2018-12-22T01:46:19.046Z,81.74
2018-12-22T01:48:49.031Z,82.37
2018-12-22T01:51:19.655Z,82.37
2018-12-22T01:53:49.701Z,81.56
2018-12-22T01:56:20.470Z,81.34
2018-12-22T01:58:50.717Z,81.44
2018-12-22T02:01:21.424Z,80.94
2018-12-22T02:03:51.375Z,81.78
2018-12-22T02:06:22.603Z,81.27
2018-12-22T02:08:53.599Z,81.83
2018-12-22T02:11:24.657Z,81.10
2018-12-22T02:13:55.481Z,81.02
2018-12-22T02:16:25.634Z,80.75
2018-12-22T02:18:55.697Z,81.56
2018-12-22T02:21:25.848Z,82.31
2018-12-22T02:23:58.003Z,82.34
2018-12-22T02:26:28.045Z,82.68
2018-12-22T02:28:58.514Z,82.19
2018-12-22T02:31:28.602Z,82.88
2018-12-22T02:33:58.692Z,83.19
2018-12-22T02:36:29.447Z,83.32
2018-12-22T02:39:00.383Z,83.72
2018-12-22T02:41:31.290Z,83.84
2018-12-22T02:44:01.573Z,83.47
2018-12-22T02:46:32.232Z,83.44
2018-12-22T02:49:02.845Z,84.52
2018-12-22T02:51:32.949Z,83.64
2018-12-22T02:54:05.552Z,83.96
2018-12-22T02:56:35.725Z,83.49
2018-12-22T02:59:06.559Z,83.38
2018-12-22T03:01:37.710Z,83.92
2018-12-22T03:04:08.013Z,84.10
2018-12-22T03:06:38.119Z,83.81
2018-12-22T03:09:09.141Z,83.50
2018-12-22T03:11:41.734Z,83.64
2018-12-22T03:14:12.639Z,83.63
2018-12-22T03:16:42.823Z,83.51
2018-12-22T03:19:13.288Z,83.40
2018-12-22T03:21:43.559Z,83.07
2018-12-22T03:24:14.150Z,83.23
2018-12-22T03:26:46.169Z,83.06
2018-12-22T03:29:16.304Z,82.66
2018-12-22T03:31:47.102Z,82.98
2018-12-22T03:34:18.281Z,83.19
2018-12-22T03:36:48.445Z,83.40
2018-12-22T03:39:19.028Z,82.95
2018-12-22T03:41:49.614Z,83.71
2018-12-22T03:44:19.872Z,83.52
2018-12-22T03:46:50.397Z,83.82
2018-12-22T03:49:21.675Z,83.92
2018-12-22T03:51:52.496Z,84.12
2018-12-22T03:54:23.883Z,83.56
2018-12-22T03:56:54.100Z,84.13
2018-12-22T03:59:25.465Z,84.29
2018-12-22T04:01:56.477Z,84.17
2018-12-22T04:04:26.565Z,83.86
2018-12-22T04:06:56.696Z,84.25
2018-12-22T04:09:26.913Z,83.81
2018-12-22T04:11:57.055Z,84.48
2018-12-22T04:14:27.177Z,84.00
2018-12-22T04:16:57.957Z,83.58
2018-12-22T04:19:28.129Z,84.18
2018-12-22T04:21:58.219Z,84.40
2018-12-22T04:24:28.933Z,84.08
2018-12-22T04:26:59.033Z,84.13
2018-12-22T04:29:33.750Z,84.19
2018-12-22T04:32:02.216Z,84.06
2018-12-22T04:34:32.293Z,83.74
2018-12-22T04:37:02.748Z,83.70
2018-12-22T04:39:32.846Z,83.93
2018-12-22T04:42:03.433Z,83.68
2018-12-22T04:44:33.410Z,83.54
2018-12-22T04:47:04.004Z,84.13
2018-12-22T04:49:34.082Z,84.55
2018-12-22T04:52:04.887Z,84.89
2018-12-22T04:54:34.825Z,84.51
2018-12-22T04:57:05.083Z,84.98
2018-12-22T04:59:42.772Z,84.40
2018-12-22T05:02:07.483Z,85.09
2018-12-22T05:04:38.050Z,85.27
2018-12-22T05:07:08.810Z,85.97
2018-12-22T05:09:39.037Z,85.65
2018-12-22T05:12:09.368Z,86.46
2018-12-22T05:14:41.213Z,87.14
2018-12-22T05:17:11.957Z,87.42
2018-12-22T05:19:42.809Z,87.64
2018-12-22T05:22:13.908Z,87.67
2018-12-22T05:24:44.565Z,87.85
2018-12-22T05:27:15.370Z,88.27
2018-12-22T05:29:51.775Z,88.66
2018-12-22T05:32:18.229Z,88.77
2018-12-22T05:34:50.118Z,88.88
2018-12-22T05:37:20.260Z,88.67
2018-12-22T05:39:52.476Z,89.53
2018-12-22T05:42:22.738Z,89.56
2018-12-22T05:44:53.152Z,89.72
2018-12-22T05:47:23.721Z,90.41
2018-12-22T05:49:54.626Z,90.04
2018-12-22T05:52:24.813Z,90.15
2018-12-22T05:54:55.580Z,90.26
2018-12-22T05:57:26.506Z,90.41
2018-12-22T06:00:00.729Z,90.33
2018-12-22T06:02:30.463Z,90.72
2018-12-22T06:05:00.682Z,91.27
2018-12-22T06:07:30.881Z,90.87
2018-12-22T06:10:02.171Z,90.28
2018-12-22T06:12:32.247Z,90.58
2018-12-22T06:15:02.335Z,90.76
2018-12-22T06:17:32.451Z,90.98
2018-12-22T06:20:03.132Z,91.31
2018-12-22T06:22:35.247Z,91.79
2018-12-22T06:25:07.213Z,91.73
2018-12-22T06:27:37.401Z,91.81
2018-12-22T06:30:09.395Z,91.46
2018-12-22T06:32:39.935Z,91.58
2018-12-22T06:35:10.978Z,91.73
2018-12-22T06:37:42.176Z,91.32
2018-12-22T06:40:12.914Z,91.42
2018-12-22T06:42:43.661Z,91.53
2018-12-22T06:45:14.132Z,91.65
2018-12-22T06:47:45.538Z,91.40
2018-12-22T06:50:16.128Z,91.49
2018-12-22T06:52:47.328Z,92.08
2018-12-22T06:55:17.448Z,91.65
2018-12-22T06:57:48.710Z,92.33
2018-12-22T07:00:19.307Z,91.88
2018-12-22T07:02:50.084Z,92.54
2018-12-22T07:05:20.224Z,92.34
2018-12-22T07:07:50.834Z,92.99
2018-12-22T07:10:21.801Z,92.68
2018-12-22T07:12:52.740Z,93.32
2018-12-22T07:15:22.911Z,92.99
2018-12-22T07:17:52.954Z,92.93
2018-12-22T07:20:23.059Z,92.86
2018-12-22T07:22:53.252Z,93.11
2018-12-22T07:25:24.070Z,93.31
2018-12-22T07:27:54.225Z,93.36
2018-12-22T07:30:26.339Z,93.34
2018-12-22T07:32:57.221Z,93.39
2018-12-22T07:35:27.740Z,93.36
2018-12-22T07:37:58.425Z,93.73
2018-12-22T07:40:28.479Z,93.30
2018-12-22T07:42:59.188Z,93.01
2018-12-22T07:45:29.366Z,93.22
2018-12-22T07:48:00.259Z,92.97
2018-12-22T07:50:30.446Z,93.10
2018-12-22T07:53:00.448Z,93.22
2018-12-22T07:55:31.294Z,93.20
2018-12-22T07:58:01.645Z,93.21
2018-12-22T08:00:35.071Z,93.28
2018-12-22T08:03:06.183Z,93.68
2018-12-22T08:05:38.943Z,93.38
2018-12-22T08:08:10.603Z,93.21
2018-12-22T08:10:41.176Z,92.81
2018-12-22T08:13:12.467Z,92.86
2018-12-22T08:15:43.209Z,92.58
2018-12-22T08:18:14.028Z,92.43
2018-12-22T08:20:45.083Z,92.42
2018-12-22T08:23:15.883Z,92.43
2018-12-22T08:25:46.061Z,92.34
2018-12-22T08:28:16.288Z,92.19
2018-12-22T08:30:48.619Z,92.10
2018-12-22T08:33:18.618Z,92.33
2018-12-22T08:35:48.643Z,91.72
2018-12-22T08:38:19.116Z,91.92
2018-12-22T08:40:49.365Z,92.46
2018-12-22T08:43:20.835Z,91.52
2018-12-22T08:45:51.515Z,91.68
2018-12-22T08:48:21.967Z,91.57
2018-12-22T08:50:52.227Z,91.29
2018-12-22T08:53:23.002Z,91.79
2018-12-22T08:55:53.088Z,91.48
2018-12-22T08:58:23.922Z,90.98
2018-12-22T09:00:55.501Z,90.64
2018-12-22T09:03:27.040Z,90.65
2018-12-22T09:05:57.317Z,90.12
2018-12-22T09:08:29.051Z,90.21
2018-12-22T09:10:59.081Z,90.20
2018-12-22T09:13:29.980Z,89.83
2018-12-22T09:16:00.956Z,89.95
2018-12-22T09:18:31.721Z,89.95
2018-12-22T09:21:01.949Z,90.18
2018-12-22T09:23:32.067Z,90.02
2018-12-22T09:26:02.181Z,90.10
2018-12-22T09:28:33.870Z,89.97
2018-12-22T09:31:03.988Z,90.06
2018-12-22T09:33:34.184Z,89.57
2018-12-22T09:36:04.274Z,89.60
2018-12-22T09:38:34.484Z,89.61
2018-12-22T09:41:04.553Z,89.86
2018-12-22T09:43:34.830Z,89.62
2018-12-22T09:46:05.073Z,89.11
2018-12-22T09:48:35.202Z,89.96
2018-12-22T09:51:05.284Z,89.96
2018-12-22T09:53:35.309Z,89.73
2018-12-22T09:56:06.214Z,89.73
2018-12-22T09:58:36.744Z,90.21
2018-12-22T10:01:09.423Z,90.16
2018-12-22T10:03:40.408Z,90.04
2018-12-22T10:06:11.512Z,90.15
2018-12-22T10:08:42.183Z,90.22
2018-12-22T10:11:12.191Z,90.39
2018-12-22T10:13:42.909Z,90.85
2018-12-22T10:16:13.522Z,90.50
2018-12-22T10:18:44.763Z,90.71
2018-12-22T10:21:15.310Z,90.95
2018-12-22T10:23:45.468Z,91.35
2018-12-22T10:26:15.535Z,90.53
2018-12-22T10:28:46.224Z,90.86
2018-12-22T10:31:18.170Z,91.06
2018-12-22T10:33:48.484Z,91.15
2018-12-22T10:36:19.268Z,91.33
2018-12-22T10:38:49.468Z,90.88
2018-12-22T10:41:20.590Z,90.90
2018-12-22T10:43:50.759Z,90.95
2018-12-22T10:46:20.786Z,90.90
2018-12-22T10:48:51.496Z,90.84
2018-12-22T10:51:24.442Z,90.82
2018-12-22T10:53:54.814Z,90.57
2018-12-22T10:56:26.703Z,90.10
2018-12-22T10:58:57.198Z,89.42
2018-12-22T11:01:28.226Z,90.12
2018-12-22T11:04:02.319Z,89.65
2018-12-22T11:06:32.614Z,90.16
2018-12-22T11:09:05.567Z,90.08
2018-12-22T11:11:35.580Z,90.46
2018-12-22T11:14:06.321Z,90.20
2018-12-22T11:16:36.415Z,89.86
2018-12-22T11:19:08.740Z,89.64
2018-12-22T11:21:39.970Z,89.96
2018-12-22T11:24:10.553Z,89.46
2018-12-22T11:26:40.547Z,89.35
2018-12-22T11:29:10.822Z,89.42
2018-12-22T11:31:40.846Z,89.64
2018-12-22T11:34:13.148Z,89.07
2018-12-22T11:36:43.797Z,88.93
2018-12-22T11:39:13.799Z,89.18
2018-12-22T11:41:43.810Z,88.88
2018-12-22T11:44:14.043Z,88.43
2018-12-22T11:46:45.093Z,88.35
2018-12-22T11:49:47.763Z,88.50
2018-12-22T11:52:18.642Z,87.92
2018-12-22T11:54:48.814Z,88.31
2018-12-22T11:57:18.987Z,87.77
2018-12-22T11:59:50.001Z,88.07
2018-12-22T12:02:20.097Z,89.01
2018-12-22T12:04:50.609Z,89.43
2018-12-22T12:07:20.926Z,88.74
2018-12-22T12:09:51.733Z,88.33
2018-12-22T12:12:22.808Z,88.31
2018-12-22T12:14:53.033Z,87.54
2018-12-22T12:18:07.733Z,86.54
2018-12-22T12:20:38.695Z,87.42
2018-12-22T12:23:09.533Z,87.62
2018-12-22T12:25:40.883Z,87.56
2018-12-22T12:28:11.035Z,87.33
2018-12-22T12:30:41.315Z,87.57
2018-12-22T12:33:11.470Z,87.55
2018-12-22T12:35:41.777Z,86.18
2018-12-22T12:38:11.891Z,87.20
2018-12-22T12:40:42.646Z,86.48
2018-12-22T12:43:13.084Z,85.43
2018-12-22T12:45:44.234Z,85.32
2018-12-22T12:48:14.766Z,85.20
2018-12-22T12:50:47.812Z,84.76
2018-12-22T12:53:17.730Z,84.86
2018-12-22T12:55:48.513Z,84.76
2018-12-22T12:58:18.743Z,84.87
2018-12-22T13:00:49.766Z,85.24
2018-12-22T13:03:20.100Z,85.01
2018-12-22T13:05:50.414Z,85.23
2018-12-22T13:11:39.500Z,86.06
2018-12-22T13:14:16.876Z,86.05
2018-12-22T13:16:47.239Z,86.44
2018-12-22T13:19:17.521Z,86.31
2018-12-22T13:21:54.634Z,86.87
2018-12-22T13:24:24.768Z,86.54
2018-12-22T13:26:55.392Z,86.64
2018-12-22T13:29:25.512Z,86.67
2018-12-22T13:31:55.697Z,86.30
2018-12-22T13:34:26.498Z,87.34
2018-12-22T13:36:56.754Z,87.68
2018-12-22T13:39:29.764Z,87.76
2018-12-22T13:42:00.773Z,87.36
2018-12-22T13:44:31.579Z,87.99
2018-12-22T13:47:01.965Z,87.96
2018-12-22T13:49:32.890Z,88.16
2018-12-22T13:52:03.147Z,88.14
2018-12-22T13:54:33.995Z,87.91
2018-12-22T13:57:04.793Z,88.20
2018-12-22T13:59:34.986Z,88.67
2018-12-22T14:02:07.710Z,89.03
2018-12-22T14:04:38.773Z,88.65
2018-12-22T14:07:12.075Z,89.44
2018-12-22T14:09:42.942Z,89.01
2018-12-22T14:12:13.785Z,88.95
2018-12-22T14:14:44.800Z,89.10
2018-12-22T14:17:24.161Z,89.10
2018-12-22T14:20:01.542Z,88.79
2018-12-22T14:22:34.400Z,89.07
2018-12-22T14:25:08.754Z,89.36
2018-12-22T14:27:39.344Z,89.41
2018-12-22T14:30:12.493Z,89.50
2018-12-22T14:32:42.715Z,89.75
2018-12-22T14:36:20.994Z,89.47
2018-12-22T14:38:51.309Z,89.68
2018-12-22T14:41:21.552Z,89.74
2018-12-22T14:43:53.003Z,90.61
2018-12-22T14:46:23.053Z,90.21
2018-12-22T14:48:53.736Z,90.10
2018-12-22T14:51:24.621Z,90.36
2018-12-22T14:53:55.383Z,90.82
2018-12-22T14:56:34.058Z,90.34
2018-12-22T14:59:04.972Z,90.60
2018-12-22T15:01:36.286Z,91.28
2018-12-22T15:04:07.661Z,91.42
2018-12-22T15:06:37.945Z,90.35
2018-12-22T15:09:13.313Z,90.02
2018-12-22T15:11:41.110Z,89.80
2018-12-22T15:14:11.235Z,89.62
2018-12-22T15:16:41.367Z,89.50
2018-12-22T15:19:11.531Z,89.82
2018-12-22T15:21:41.674Z,89.67
2018-12-22T15:24:12.703Z,89.82
2018-12-22T15:26:43.867Z,89.77
2018-12-22T15:29:14.867Z,89.79
2018-12-22T15:31:46.444Z,90.02
2018-12-22T15:34:16.674Z,90.57
2018-12-22T15:36:46.672Z,90.44
2018-12-22T15:39:17.267Z,90.13
2018-12-22T15:41:47.390Z,90.62
2018-12-22T15:44:18.049Z,90.40
2018-12-22T15:46:48.115Z,90.91
2018-12-22T15:49:21.347Z,90.21
2018-12-22T15:51:51.544Z,89.94
2018-12-22T15:54:21.819Z,90.45
2018-12-22T15:56:52.549Z,91.08
2018-12-22T15:59:22.785Z,91.00
2018-12-22T16:01:52.876Z,91.28
2018-12-22T16:04:23.068Z,91.09
2018-12-22T16:06:53.199Z,90.67
2018-12-22T16:09:23.903Z,90.96
2018-12-22T16:11:54.123Z,90.99
2018-12-22T16:14:24.227Z,90.43
2018-12-22T16:16:55.487Z,90.57
2018-12-22T16:19:26.230Z,90.28
2018-12-22T16:21:56.808Z,90.09
2018-12-22T16:24:27.019Z,89.72
2018-12-22T16:26:57.339Z,88.82
2018-12-22T16:29:34.014Z,88.09
2018-12-22T16:32:04.406Z,88.24
2018-12-22T16:34:34.780Z,87.90
2018-12-22T16:37:05.510Z,87.89
2018-12-22T16:39:36.226Z,86.68
2018-12-22T16:42:06.820Z,86.89
2018-12-22T16:44:37.059Z,86.45
2018-12-22T16:47:07.289Z,86.32
2018-12-22T16:49:37.834Z,86.66
2018-12-22T16:52:08.867Z,86.64
2018-12-22T16:54:39.043Z,86.25
2018-12-22T16:57:09.250Z,86.37
2018-12-22T16:59:39.997Z,86.26
2018-12-22T17:02:41.801Z,86.39
2018-12-22T17:05:12.617Z,86.81
2018-12-22T17:07:42.821Z,86.20
2018-12-22T17:10:13.085Z,86.53
2018-12-22T17:12:43.534Z,86.88
2018-12-22T17:15:21.938Z,85.91
2018-12-22T17:17:47.361Z,86.45
2018-12-22T17:20:17.479Z,86.10
2018-12-22T17:23:08.108Z,86.55
2018-12-22T17:25:49.496Z,86.49
2018-12-22T17:28:28.073Z,86.26
2018-12-22T17:30:51.799Z,86.96
2018-12-22T17:33:21.897Z,86.62
2018-12-22T17:35:52.029Z,86.30
2018-12-22T17:38:22.263Z,87.15
2018-12-22T17:40:52.640Z,86.37
2018-12-22T17:43:23.302Z,87.34
2018-12-22T17:45:54.450Z,87.04
2018-12-22T17:48:24.989Z,86.68
2018-12-22T17:50:55.148Z,86.90
2018-12-22T17:53:25.185Z,87.78
2018-12-22T17:55:55.336Z,87.17
2018-12-22T17:58:25.303Z,87.48
2018-12-22T18:00:55.542Z,87.38
2018-12-22T18:03:31.983Z,87.45
2018-12-22T18:06:02.139Z,87.00
2018-12-22T18:08:32.309Z,86.70
2018-12-22T18:11:04.006Z,86.89
2018-12-22T18:13:34.756Z,87.27
2018-12-22T18:16:04.969Z,87.19
2018-12-22T18:18:35.171Z,87.68
2018-12-22T18:21:05.376Z,87.21
2018-12-22T18:23:36.066Z,86.89
2018-12-22T18:26:06.692Z,86.54
2018-12-22T18:28:37.294Z,86.22
2018-12-22T18:31:08.879Z,86.47
2018-12-22T18:33:38.896Z,86.16
2018-12-22T18:36:09.540Z,85.94
2018-12-22T18:38:40.358Z,86.44
2018-12-22T18:41:10.922Z,86.79
2018-12-22T18:43:42.453Z,86.54
2018-12-22T18:46:13.105Z,86.42
2018-12-22T18:48:43.102Z,86.97
2018-12-22T18:51:13.711Z,86.96
2018-12-22T18:53:43.915Z,87.06
2018-12-22T18:56:14.763Z,87.47
2018-12-22T18:58:44.919Z,87.12
2018-12-22T19:01:15.170Z,87.36
2018-12-22T19:03:45.395Z,87.32
2018-12-22T19:06:15.858Z,87.59
2018-12-22T19:08:46.658Z,87.97
2018-12-22T19:11:19.893Z,87.89
2018-12-22T19:13:50.020Z,87.96
2018-12-22T19:16:20.935Z,87.91
2018-12-22T19:18:51.061Z,87.55
2018-12-22T19:21:21.695Z,88.65
2018-12-22T19:23:51.642Z,88.20
2018-12-22T19:26:22.445Z,88.02
2018-12-22T19:28:52.474Z,87.90
2018-12-22T19:31:22.909Z,87.90
2018-12-22T19:33:54.228Z,87.94
2018-12-22T19:36:25.838Z,87.81
2018-12-22T19:38:58.074Z,87.05
2018-12-22T19:41:28.875Z,87.32
2018-12-22T19:43:59.645Z,86.81
2018-12-22T19:46:29.953Z,87.06
2018-12-22T19:49:00.658Z,86.81
2018-12-22T19:51:31.465Z,87.10
2018-12-22T19:54:02.106Z,86.73
2018-12-22T19:56:33.054Z,87.10
2018-12-22T19:59:03.788Z,87.23
2018-12-22T20:01:34.480Z,87.54
2018-12-22T20:04:04.683Z,87.83
2018-12-22T20:06:34.839Z,87.42
2018-12-22T20:09:06.085Z,88.02
2018-12-22T20:11:36.279Z,87.79
2018-12-22T20:14:07.383Z,88.08
2018-12-22T20:16:38.225Z,88.52
2018-12-22T20:19:08.268Z,88.44
2018-12-22T20:21:38.635Z,88.47
2018-12-22T20:24:08.806Z,88.82
2018-12-22T20:26:40.159Z,88.03
2018-12-22T20:29:10.798Z,88.52
2018-12-22T20:31:42.152Z,88.51
2018-12-22T20:34:13.058Z,88.83
2018-12-22T20:36:43.867Z,88.29
2018-12-22T20:39:14.564Z,87.91
2018-12-22T20:41:44.736Z,88.27
2018-12-22T20:44:14.862Z,88.55
2018-12-22T20:46:45.075Z,88.88
2018-12-22T20:49:15.333Z,88.95
2018-12-22T20:51:46.087Z,89.01
2018-12-22T20:54:16.779Z,88.94
2018-12-22T20:56:47.490Z,89.05
2018-12-22T20:59:18.480Z,89.02
2018-12-22T21:01:48.649Z,88.18
2018-12-22T21:04:19.997Z,88.51
2018-12-22T21:06:50.438Z,88.40
2018-12-22T21:09:22.011Z,88.24
2018-12-22T21:11:52.495Z,87.90
2018-12-22T21:14:23.262Z,87.88
2018-12-22T21:16:54.659Z,87.91
2018-12-22T21:19:25.365Z,87.93
2018-12-22T21:21:55.579Z,87.95
2018-12-22T21:24:26.074Z,88.19
2018-12-22T21:26:56.040Z,88.33
2018-12-22T21:29:26.185Z,88.04
2018-12-22T21:31:56.343Z,88.03
2018-12-22T21:34:28.459Z,88.02
2018-12-22T21:36:58.697Z,87.97
2018-12-22T21:39:28.867Z,87.85
2018-12-22T21:41:58.914Z,88.05
2018-12-22T21:44:29.058Z,87.90
2018-12-22T21:46:59.377Z,87.48
2018-12-22T21:49:30.017Z,87.55
2018-12-22T21:52:00.204Z,87.58
2018-12-22T21:54:31.532Z,88.00
2018-12-22T21:57:02.726Z,87.77
2018-12-22T21:59:32.913Z,86.87
2018-12-22T22:02:02.965Z,87.16
2018-12-22T22:04:36.975Z,87.01
2018-12-22T22:07:05.263Z,86.65
2018-12-22T22:09:36.000Z,87.15
2018-12-22T22:12:07.368Z,87.57
2018-12-22T22:14:37.995Z,87.68
2018-12-22T22:17:08.122Z,87.81
2018-12-22T22:19:38.243Z,87.19
2018-12-22T22:22:08.322Z,86.88
2018-12-22T22:24:38.502Z,86.92
2018-12-22T22:27:08.781Z,86.76
2018-12-22T22:29:39.601Z,86.04
2018-12-22T22:32:10.501Z,86.75
2018-12-22T22:34:45.593Z,86.37
2018-12-22T22:37:12.946Z,86.43
2018-12-22T22:39:43.493Z,86.11
2018-12-22T22:42:13.746Z,85.92
2018-12-22T22:44:44.604Z,86.67
2018-12-22T22:47:14.822Z,87.05
2018-12-22T22:49:44.879Z,85.87
2018-12-22T22:52:15.045Z,86.66
2018-12-22T22:54:45.852Z,86.83
2018-12-22T22:57:16.052Z,86.42
2018-12-22T22:59:46.704Z,86.87
2018-12-22T23:02:16.888Z,86.36
2018-12-22T23:04:54.167Z,86.54
2018-12-22T23:07:19.073Z,86.25
2018-12-22T23:09:49.414Z,86.75
2018-12-22T23:12:19.434Z,87.00
2018-12-22T23:14:50.119Z,86.53
2018-12-22T23:17:20.648Z,86.82
2018-12-22T23:19:50.775Z,86.98
2018-12-22T23:22:20.950Z,86.85
2018-12-22T23:24:51.771Z,87.30
2018-12-22T23:27:21.917Z,87.12
2018-12-22T23:29:52.836Z,87.22
2018-12-22T23:32:23.050Z,87.51
2018-12-22T23:34:53.156Z,87.65
2018-12-22T23:37:23.345Z,88.06
2018-12-22T23:39:55.162Z,87.34
2018-12-22T23:42:25.365Z,87.58
2018-12-22T23:44:55.754Z,87.67
2018-12-22T23:47:26.994Z,87.53
2018-12-22T23:49:58.097Z,87.24
2018-12-22T23:52:30.411Z,87.88
2018-12-22T23:55:00.963Z,87.83
2018-12-22T23:57:31.923Z,87.73
